sensor_id;sensor_type;location;lat;lon;timestamp;temperature;humidity
19561;DHT22;9927;47.792;10.616;2022-12-29T04:02:18;6.20;99.90
19561;DHT22;9927;47.792;10.616;2022-12-29T04:04:45;6.30;99.90
19561;DHT22;9927;47.792;10.616;2022-12-29T04:07:13;6.30;99.90
19561;DHT22;9927;47.792;10.616;2022-12-29T04:09:40;6.30;99.90
19561;DHT22;9927;47.792;10.616;2022-12-29T04:12:07;6.30;99.90
19561;DHT22;9927;47.792;10.616;2022-12-29T04:14:35;6.30;99.90
19561;DHT22;9927;47.792;10.616;2022-12-29T04:17:02;6.20;99.90
19561;DHT22;9927;47.792;10.616;2022-12-29T04:19:29;6.20;99.90
19561;DHT22;9927;47.792;10.616;2022-12-29T04:21:57;6.20;99.90
19561;DHT22;9927;47.792;10.616;2022-12-29T04:24:24;6.20;99.90
19561;DHT22;9927;47.792;10.616;2022-12-29T04:26:51;6.30;99.90
19561;DHT22;9927;47.792;10.616;2022-12-29T04:29:18;6.20;99.90
19561;DHT22;9927;47.792;10.616;2022-12-29T04:31:46;6.40;99.90
19561;DHT22;9927;47.792;10.616;2022-12-29T04:34:13;6.40;99.90
19561;DHT22;9927;47.792;10.616;2022-12-29T04:36:40;6.40;99.90
19561;DHT22;9927;47.792;10.616;2022-12-29T04:39:08;6.50;99.90
19561;DHT22;9927;47.792;10.616;2022-12-29T04:41:35;6.50;99.90
19561;DHT22;9927;47.792;10.616;2022-12-29T04:44:03;6.50;99.90
19561;DHT22;9927;47.792;10.616;2022-12-29T04:46:33;6.60;99.90
19561;DHT22;9927;47.792;10.616;2022-12-29T04:49:01;6.60;99.90
19561;DHT22;9927;47.792;10.616;2022-12-29T04:51:34;6.50;99.90
19561;DHT22;9927;47.792;10.616;2022-12-29T04:54:02;6.50;99.90
19561;DHT22;9927;47.792;10.616;2022-12-29T04:56:30;6.50;99.90
19561;DHT22;9927;47.792;10.616;2022-12-29T04:58:57;6.40;99.90
19561;DHT22;9927;47.792;10.616;2022-12-29T05:01:24;6.40;99.90
19561;DHT22;9927;47.792;10.616;2022-12-29T05:03:51;6.40;99.90
19561;DHT22;9927;47.792;10.616;2022-12-29T05:06:19;6.40;99.90
19561;DHT22;9927;47.792;10.616;2022-12-29T05:08:46;6.50;99.90
19561;DHT22;9927;47.792;10.616;2022-12-29T05:11:13;6.50;99.90
19561;DHT22;9927;47.792;10.616;2022-12-29T05:13:41;6.50;99.90
19561;DHT22;9927;47.792;10.616;2022-12-29T05:16:08;6.40;99.90
19561;DHT22;9927;47.792;10.616;2022-12-29T05:18:35;6.40;99.90
19561;DHT22;9927;47.792;10.616;2022-12-29T05:21:03;6.40;99.90
19561;DHT22;9927;47.792;10.616;2022-12-29T05:23:30;6.40;99.90
19561;DHT22;9927;47.792;10.616;2022-12-29T05:25:57;6.40;99.90
19561;DHT22;9927;47.792;10.616;2022-12-29T05:28:24;6.40;99.90
19561;DHT22;9927;47.792;10.616;2022-12-29T05:30:52;6.40;99.90
19561;DHT22;9927;47.792;10.616;2022-12-29T05:33:19;6.40;99.90
19561;DHT22;9927;47.792;10.616;2022-12-29T05:35:47;6.40;99.90
19561;DHT22;9927;47.792;10.616;2022-12-29T05:38:14;6.40;99.90
19561;DHT22;9927;47.792;10.616;2022-12-29T05:40:43;6.40;99.90
19561;DHT22;9927;47.792;10.616;2022-12-29T05:43:10;6.40;99.90
19561;DHT22;9927;47.792;10.616;2022-12-29T05:45:37;6.30;99.90
19561;DHT22;9927;47.792;10.616;2022-12-29T05:48:04;6.30;99.90
19561;DHT22;9927;47.792;10.616;2022-12-29T05:50:32;6.20;99.90
19561;DHT22;9927;47.792;10.616;2022-12-29T05:52:59;6.20;99.90
19561;DHT22;9927;47.792;10.616;2022-12-29T05:55:26;6.20;99.90
19561;DHT22;9927;47.792;10.616;2022-12-29T05:57:53;6.30;99.90
19561;DHT22;9927;47.792;10.616;2022-12-29T06:00:21;6.30;99.90
19561;DHT22;9927;47.792;10.616;2022-12-29T06:02:48;6.20;99.90
19561;DHT22;9927;47.792;10.616;2022-12-29T06:05:16;6.20;99.90
19561;DHT22;9927;47.792;10.616;2022-12-29T06:07:43;6.00;99.90
19561;DHT22;9927;47.792;10.616;2022-12-29T06:10:11;5.90;99.90
19561;DHT22;9927;47.792;10.616;2022-12-29T06:12:39;5.80;99.90
19561;DHT22;9927;47.792;10.616;2022-12-29T06:15:06;5.60;99.90
19561;DHT22;9927;47.792;10.616;2022-12-29T06:17:33;5.50;99.90
19561;DHT22;9927;47.792;10.616;2022-12-29T06:20:02;5.50;99.90
19561;DHT22;9927;47.792;10.616;2022-12-29T06:22:29;5.40;99.90
19561;DHT22;9927;47.792;10.616;2022-12-29T06:24:56;5.40;99.90
19561;DHT22;9927;47.792;10.616;2022-12-29T06:27:31;5.40;99.90
19561;DHT22;9927;47.792;10.616;2022-12-29T06:29:58;5.40;99.90
19561;DHT22;9927;47.792;10.616;2022-12-29T06:32:26;5.30;99.90
19561;DHT22;9927;47.792;10.616;2022-12-29T06:34:53;5.40;99.90
19561;DHT22;9927;47.792;10.616;2022-12-29T06:37:20;5.40;99.90
19561;DHT22;9927;47.792;10.616;2022-12-29T06:39:48;5.30;99.90
19561;DHT22;9927;47.792;10.616;2022-12-29T06:42:15;5.30;99.90
19561;DHT22;9927;47.792;10.616;2022-12-29T06:44:42;5.30;99.90
19561;DHT22;9927;47.792;10.616;2022-12-29T06:47:11;5.20;99.90
19561;DHT22;9927;47.792;10.616;2022-12-29T06:49:38;5.20;99.90
19561;DHT22;9927;47.792;10.616;2022-12-29T06:52:06;5.10;99.90
19561;DHT22;9927;47.792;10.616;2022-12-29T06:54:39;5.10;99.90
19561;DHT22;9927;47.792;10.616;2022-12-29T06:57:06;5.10;99.90
19561;DHT22;9927;47.792;10.616;2022-12-29T06:59:34;5.10;99.90
19561;DHT22;9927;47.792;10.616;2022-12-29T07:02:01;5.20;99.90
19561;DHT22;9927;47.792;10.616;2022-12-29T07:04:29;5.10;99.90
19561;DHT22;9927;47.792;10.616;2022-12-29T07:06:56;5.10;99.90
19561;DHT22;9927;47.792;10.616;2022-12-29T07:09:24;5.10;99.90
19561;DHT22;9927;47.792;10.616;2022-12-29T07:11:51;5.20;99.90
19561;DHT22;9927;47.792;10.616;2022-12-29T07:14:18;5.10;99.90
19561;DHT22;9927;47.792;10.616;2022-12-29T07:16:45;5.20;99.90
19561;DHT22;9927;47.792;10.616;2022-12-29T07:19:13;5.30;99.90
19561;DHT22;9927;47.792;10.616;2022-12-29T07:21:40;5.40;99.90
19561;DHT22;9927;47.792;10.616;2022-12-29T07:24:13;5.40;99.90
19561;DHT22;9927;47.792;10.616;2022-12-29T07:26:40;5.40;99.90
19561;DHT22;9927;47.792;10.616;2022-12-29T07:29:08;5.40;99.90
19561;DHT22;9927;47.792;10.616;2022-12-29T07:31:36;5.40;99.90
19561;DHT22;9927;47.792;10.616;2022-12-29T07:34:03;5.40;99.90
19561;DHT22;9927;47.792;10.616;2022-12-29T07:36:30;5.40;99.90
19561;DHT22;9927;47.792;10.616;2022-12-29T07:39:01;5.40;99.90
19561;DHT22;9927;47.792;10.616;2022-12-29T07:41:29;5.30;99.90
19561;DHT22;9927;47.792;10.616;2022-12-29T07:43:57;5.30;99.90
19561;DHT22;9927;47.792;10.616;2022-12-29T07:46:24;5.30;99.90
19561;DHT22;9927;47.792;10.616;2022-12-29T07:49:12;5.30;99.90
19561;DHT22;9927;47.792;10.616;2022-12-29T07:51:39;5.40;99.90
19561;DHT22;9927;47.792;10.616;2022-12-29T07:54:09;5.50;99.90
19561;DHT22;9927;47.792;10.616;2022-12-29T07:56:37;5.50;99.90
19561;DHT22;9927;47.792;10.616;2022-12-29T07:59:04;5.60;99.90
19561;DHT22;9927;47.792;10.616;2022-12-29T08:01:31;5.70;99.90
19561;DHT22;9927;47.792;10.616;2022-12-29T08:03:59;5.70;99.90
19561;DHT22;9927;47.792;10.616;2022-12-29T08:06:26;5.90;99.90
19561;DHT22;9927;47.792;10.616;2022-12-29T08:08:53;6.10;99.90
19561;DHT22;9927;47.792;10.616;2022-12-29T08:11:23;6.30;99.90
19561;DHT22;9927;47.792;10.616;2022-12-29T08:13:51;6.30;99.90
19561;DHT22;9927;47.792;10.616;2022-12-29T08:16:18;6.40;99.90
19561;DHT22;9927;47.792;10.616;2022-12-29T08:18:45;6.50;99.90
19561;DHT22;9927;47.792;10.616;2022-12-29T08:21:13;6.50;99.90
19561;DHT22;9927;47.792;10.616;2022-12-29T08:23:40;6.50;99.90
19561;DHT22;9927;47.792;10.616;2022-12-29T08:26:07;6.40;99.90
19561;DHT22;9927;47.792;10.616;2022-12-29T08:28:34;6.40;99.90
19561;DHT22;9927;47.792;10.616;2022-12-29T08:31:02;6.40;99.90
19561;DHT22;9927;47.792;10.616;2022-12-29T08:33:30;6.40;99.80
19561;DHT22;9927;47.792;10.616;2022-12-29T08:36:05;6.40;99.90
19561;DHT22;9927;47.792;10.616;2022-12-29T08:38:33;6.60;99.90
19561;DHT22;9927;47.792;10.616;2022-12-29T08:41:00;6.70;99.90
19561;DHT22;9927;47.792;10.616;2022-12-29T08:43:28;6.80;99.90
19561;DHT22;9927;47.792;10.616;2022-12-29T08:45:58;7.00;99.90
19561;DHT22;9927;47.792;10.616;2022-12-29T08:48:26;7.30;99.90
19561;DHT22;9927;47.792;10.616;2022-12-29T08:50:53;7.50;99.50
19561;DHT22;9927;47.792;10.616;2022-12-29T08:53:21;7.50;99.90
19561;DHT22;9927;47.792;10.616;2022-12-29T08:55:55;7.60;99.90
19561;DHT22;9927;47.792;10.616;2022-12-29T08:58:31;7.70;99.30
19561;DHT22;9927;47.792;10.616;2022-12-29T09:00:59;7.80;99.50
19561;DHT22;9927;47.792;10.616;2022-12-29T09:03:26;7.90;99.40
19561;DHT22;9927;47.792;10.616;2022-12-29T09:06:15;8.10;98.60
19561;DHT22;9927;47.792;10.616;2022-12-29T09:08:43;8.10;99.00
19561;DHT22;9927;47.792;10.616;2022-12-29T09:11:15;8.10;98.30
19561;DHT22;9927;47.792;10.616;2022-12-29T09:13:42;8.00;99.00
19561;DHT22;9927;47.792;10.616;2022-12-29T09:16:10;8.00;99.30
19561;DHT22;9927;47.792;10.616;2022-12-29T09:18:38;8.20;99.00
19561;DHT22;9927;47.792;10.616;2022-12-29T09:21:06;8.30;99.00
19561;DHT22;9927;47.792;10.616;2022-12-29T09:23:34;8.20;99.50
19561;DHT22;9927;47.792;10.616;2022-12-29T09:26:02;8.30;98.90
19561;DHT22;9927;47.792;10.616;2022-12-29T09:28:30;8.30;98.40
19561;DHT22;9927;47.792;10.616;2022-12-29T09:30:58;8.40;97.50
19561;DHT22;9927;47.792;10.616;2022-12-29T09:33:26;8.50;98.50
19561;DHT22;9927;47.792;10.616;2022-12-29T09:35:56;8.60;98.20
19561;DHT22;9927;47.792;10.616;2022-12-29T09:38:25;8.60;98.90
19561;DHT22;9927;47.792;10.616;2022-12-29T09:40:55;8.60;98.90
19561;DHT22;9927;47.792;10.616;2022-12-29T09:46:43;8.70;98.00
19561;DHT22;9927;47.792;10.616;2022-12-29T09:49:44;8.70;97.00
19561;DHT22;9927;47.792;10.616;2022-12-29T09:54:53;8.80;97.20
19561;DHT22;9927;47.792;10.616;2022-12-29T09:57:59;8.80;97.30
19561;DHT22;9927;47.792;10.616;2022-12-29T10:00:48;8.90;96.10
19561;DHT22;9927;47.792;10.616;2022-12-29T10:03:24;9.00;95.70
19561;DHT22;9927;47.792;10.616;2022-12-29T10:06:13;9.00;97.00
19561;DHT22;9927;47.792;10.616;2022-12-29T10:19:59;9.10;97.30
19561;DHT22;9927;47.792;10.616;2022-12-29T10:25:24;9.50;97.10
19561;DHT22;9927;47.792;10.616;2022-12-29T10:28:00;9.60;97.00
19561;DHT22;9927;47.792;10.616;2022-12-29T10:30:33;9.70;95.60
19561;DHT22;9927;47.792;10.616;2022-12-29T10:33:07;9.70;95.90
19561;DHT22;9927;47.792;10.616;2022-12-29T10:35:38;9.90;95.80
19561;DHT22;9927;47.792;10.616;2022-12-29T10:43:51;9.80;95.60
19561;DHT22;9927;47.792;10.616;2022-12-29T10:46:54;9.80;94.90
19561;DHT22;9927;47.792;10.616;2022-12-29T10:49:24;9.90;94.90
19561;DHT22;9927;47.792;10.616;2022-12-29T10:51:55;9.80;94.90
19561;DHT22;9927;47.792;10.616;2022-12-29T10:54:33;9.80;94.20
19561;DHT22;9927;47.792;10.616;2022-12-29T10:59:57;9.80;92.90
19561;DHT22;9927;47.792;10.616;2022-12-29T11:05:33;9.60;93.80
19561;DHT22;9927;47.792;10.616;2022-12-29T11:08:08;9.50;93.60
19561;DHT22;9927;47.792;10.616;2022-12-29T11:10:39;9.40;93.80
19561;DHT22;9927;47.792;10.616;2022-12-29T11:13:17;9.40;94.00
19561;DHT22;9927;47.792;10.616;2022-12-29T11:15:47;9.30;93.90
19561;DHT22;9927;47.792;10.616;2022-12-29T11:18:36;9.20;93.80
19561;DHT22;9927;47.792;10.616;2022-12-29T11:24:02;9.30;94.40
19561;DHT22;9927;47.792;10.616;2022-12-29T11:26:32;9.50;94.40
19561;DHT22;9927;47.792;10.616;2022-12-29T11:29:17;9.50;94.40
19561;DHT22;9927;47.792;10.616;2022-12-29T11:31:49;9.60;94.50
19561;DHT22;9927;47.792;10.616;2022-12-29T11:34:22;9.80;93.60
19561;DHT22;9927;47.792;10.616;2022-12-29T11:36:53;9.90;93.90
19561;DHT22;9927;47.792;10.616;2022-12-29T11:41:56;10.10;93.30
19561;DHT22;9927;47.792;10.616;2022-12-29T11:44:25;10.30;92.10
19561;DHT22;9927;47.792;10.616;2022-12-29T11:46:54;10.40;93.00
19561;DHT22;9927;47.792;10.616;2022-12-29T11:49:25;10.50;93.00
19561;DHT22;9927;47.792;10.616;2022-12-29T11:51:54;10.70;93.30
19561;DHT22;9927;47.792;10.616;2022-12-29T11:54:29;10.90;92.40
19561;DHT22;9927;47.792;10.616;2022-12-29T11:56:59;11.10;92.90
19561;DHT22;9927;47.792;10.616;2022-12-29T11:59:42;11.40;94.10
19561;DHT22;9927;47.792;10.616;2022-12-29T12:04:43;11.90;93.50
19561;DHT22;9927;47.792;10.616;2022-12-29T12:07:42;12.10;93.80
19561;DHT22;9927;47.792;10.616;2022-12-29T12:10:18;12.30;92.70
19561;DHT22;9927;47.792;10.616;2022-12-29T12:12:48;12.30;92.50
19561;DHT22;9927;47.792;10.616;2022-12-29T12:15:27;12.40;93.20
19561;DHT22;9927;47.792;10.616;2022-12-29T12:20:45;12.60;91.60
19561;DHT22;9927;47.792;10.616;2022-12-29T12:23:22;12.60;91.80
19561;DHT22;9927;47.792;10.616;2022-12-29T12:29:15;12.60;92.40
19561;DHT22;9927;47.792;10.616;2022-12-29T12:34:36;12.70;93.00
19561;DHT22;9927;47.792;10.616;2022-12-29T12:48:41;13.10;90.30
19561;DHT22;9927;47.792;10.616;2022-12-29T13:00:07;13.10;90.60
19561;DHT22;9927;47.792;10.616;2022-12-29T13:16:19;13.60;87.60
19561;DHT22;9927;47.792;10.616;2022-12-29T13:19:00;13.70;86.90
19561;DHT22;9927;47.792;10.616;2022-12-29T13:30:05;13.90;86.10
19561;DHT22;9927;47.792;10.616;2022-12-29T13:38:00;13.40;84.70
19561;DHT22;9927;47.792;10.616;2022-12-29T13:40:33;13.20;88.40
19561;DHT22;9927;47.792;10.616;2022-12-29T13:43:02;13.20;89.00
19561;DHT22;9927;47.792;10.616;2022-12-29T13:45:31;13.10;89.70
19561;DHT22;9927;47.792;10.616;2022-12-29T13:48:21;13.00;88.20
19561;DHT22;9927;47.792;10.616;2022-12-29T13:50:57;12.90;87.90
19561;DHT22;9927;47.792;10.616;2022-12-29T13:56:48;12.80;90.60
19561;DHT22;9927;47.792;10.616;2022-12-29T14:02:54;12.40;91.90
19561;DHT22;9927;47.792;10.616;2022-12-29T14:10:30;12.20;92.70
19561;DHT22;9927;47.792;10.616;2022-12-29T14:15:30;12.10;93.40
19561;DHT22;9927;47.792;10.616;2022-12-29T14:18:23;12.00;93.30
19561;DHT22;9927;47.792;10.616;2022-12-29T14:20:57;11.80;94.20
19561;DHT22;9927;47.792;10.616;2022-12-29T14:24:25;11.70;94.30
19561;DHT22;9927;47.792;10.616;2022-12-29T14:26:46;11.80;94.70
19561;DHT22;9927;47.792;10.616;2022-12-29T14:32:36;11.60;95.40
19561;DHT22;9927;47.792;10.616;2022-12-29T14:35:45;11.50;96.10
19561;DHT22;9927;47.792;10.616;2022-12-29T14:38:18;11.50;96.20
19561;DHT22;9927;47.792;10.616;2022-12-29T14:40:47;11.50;96.60
19561;DHT22;9927;47.792;10.616;2022-12-29T14:43:24;11.50;96.80
19561;DHT22;9927;47.792;10.616;2022-12-29T14:45:58;11.50;96.70
19561;DHT22;9927;47.792;10.616;2022-12-29T14:48:44;11.50;96.60
19561;DHT22;9927;47.792;10.616;2022-12-29T14:51:31;11.60;96.20
19561;DHT22;9927;47.792;10.616;2022-12-29T14:53:59;11.60;96.10
19561;DHT22;9927;47.792;10.616;2022-12-29T14:56:28;11.50;97.10
19561;DHT22;9927;47.792;10.616;2022-12-29T14:59:01;11.40;97.40
19561;DHT22;9927;47.792;10.616;2022-12-29T15:04:22;11.30;97.10
19561;DHT22;9927;47.792;10.616;2022-12-29T15:06:52;11.10;97.60
19561;DHT22;9927;47.792;10.616;2022-12-29T15:09:40;11.00;97.50
19561;DHT22;9927;47.792;10.616;2022-12-29T15:12:41;10.90;97.70
19561;DHT22;9927;47.792;10.616;2022-12-29T15:15:23;10.80;98.00
19561;DHT22;9927;47.792;10.616;2022-12-29T15:17:51;10.80;98.60
19561;DHT22;9927;47.792;10.616;2022-12-29T15:23:10;10.80;98.50
19561;DHT22;9927;47.792;10.616;2022-12-29T15:25:57;10.70;98.00
19561;DHT22;9927;47.792;10.616;2022-12-29T15:28:26;10.60;98.30
19561;DHT22;9927;47.792;10.616;2022-12-29T15:31:06;10.40;98.90
19561;DHT22;9927;47.792;10.616;2022-12-29T15:33:38;10.40;99.20
19561;DHT22;9927;47.792;10.616;2022-12-29T15:36:12;10.30;99.40
19561;DHT22;9927;47.792;10.616;2022-12-29T15:38:40;10.30;99.80
19561;DHT22;9927;47.792;10.616;2022-12-29T15:41:34;10.40;99.30
19561;DHT22;9927;47.792;10.616;2022-12-29T15:44:28;10.40;99.40
19561;DHT22;9927;47.792;10.616;2022-12-29T15:46:57;10.50;98.80
19561;DHT22;9927;47.792;10.616;2022-12-29T15:49:24;10.50;98.40
19561;DHT22;9927;47.792;10.616;2022-12-29T15:51:58;10.50;96.80
19561;DHT22;9927;47.792;10.616;2022-12-29T15:54:29;10.50;97.60
19561;DHT22;9927;47.792;10.616;2022-12-29T15:56:57;10.50;97.70
19561;DHT22;9927;47.792;10.616;2022-12-29T15:59:33;10.50;96.20
19561;DHT22;9927;47.792;10.616;2022-12-29T16:02:02;10.50;96.30
19561;DHT22;9927;47.792;10.616;2022-12-29T16:04:39;10.50;96.50
19561;DHT22;9927;47.792;10.616;2022-12-29T16:07:33;10.50;96.90
19561;DHT22;9927;47.792;10.616;2022-12-29T16:12:50;10.40;96.30
19561;DHT22;9927;47.792;10.616;2022-12-29T16:15:18;10.40;96.80
19561;DHT22;9927;47.792;10.616;2022-12-29T16:17:48;10.40;96.50
19561;DHT22;9927;47.792;10.616;2022-12-29T16:20:21;10.30;96.90
19561;DHT22;9927;47.792;10.616;2022-12-29T16:22:56;10.30;96.60
19561;DHT22;9927;47.792;10.616;2022-12-29T16:25:32;10.20;97.10
19561;DHT22;9927;47.792;10.616;2022-12-29T16:28:02;10.20;96.80
19561;DHT22;9927;47.792;10.616;2022-12-29T16:30:40;10.00;96.80
19561;DHT22;9927;47.792;10.616;2022-12-29T16:36:25;9.80;97.40
19561;DHT22;9927;47.792;10.616;2022-12-29T16:39:20;9.80;97.50
19561;DHT22;9927;47.792;10.616;2022-12-29T16:41:49;9.60;97.00
19561;DHT22;9927;47.792;10.616;2022-12-29T16:49:40;9.50;96.50
19561;DHT22;9927;47.792;10.616;2022-12-29T16:52:13;9.40;96.70
19561;DHT22;9927;47.792;10.616;2022-12-29T16:54:51;9.40;97.10
19561;DHT22;9927;47.792;10.616;2022-12-29T16:57:24;9.40;97.10
19561;DHT22;9927;47.792;10.616;2022-12-29T16:59:53;9.40;97.00
19561;DHT22;9927;47.792;10.616;2022-12-29T17:02:25;9.30;96.90
19561;DHT22;9927;47.792;10.616;2022-12-29T17:04:54;9.30;97.40
19561;DHT22;9927;47.792;10.616;2022-12-29T17:07:24;9.30;97.30
19561;DHT22;9927;47.792;10.616;2022-12-29T17:09:52;9.20;97.70
19561;DHT22;9927;47.792;10.616;2022-12-29T17:12:27;9.20;97.40
19561;DHT22;9927;47.792;10.616;2022-12-29T17:17:47;9.20;97.70
19561;DHT22;9927;47.792;10.616;2022-12-29T17:22:44;9.10;97.40
19561;DHT22;9927;47.792;10.616;2022-12-29T17:25:14;9.10;97.60
19561;DHT22;9927;47.792;10.616;2022-12-29T17:30:14;9.10;97.70
19561;DHT22;9927;47.792;10.616;2022-12-29T17:32:43;9.10;97.30
19561;DHT22;9927;47.792;10.616;2022-12-29T17:35:17;9.10;97.70
19561;DHT22;9927;47.792;10.616;2022-12-29T17:37:45;9.10;97.50
19561;DHT22;9927;47.792;10.616;2022-12-29T17:40:15;9.10;97.40
19561;DHT22;9927;47.792;10.616;2022-12-29T17:42:48;9.00;97.10
19561;DHT22;9927;47.792;10.616;2022-12-29T17:45:17;9.00;97.70
19561;DHT22;9927;47.792;10.616;2022-12-29T17:47:46;9.00;97.70
19561;DHT22;9927;47.792;10.616;2022-12-29T17:50:16;9.00;97.40
19561;DHT22;9927;47.792;10.616;2022-12-29T17:52:51;9.00;97.40
19561;DHT22;9927;47.792;10.616;2022-12-29T17:55:21;9.00;97.90
19561;DHT22;9927;47.792;10.616;2022-12-29T17:57:49;9.00;97.80
19561;DHT22;9927;47.792;10.616;2022-12-29T18:00:19;9.00;97.80
19561;DHT22;9927;47.792;10.616;2022-12-29T18:02:47;9.10;97.20
19561;DHT22;9927;47.792;10.616;2022-12-29T18:05:29;9.10;97.70
19561;DHT22;9927;47.792;10.616;2022-12-29T18:07:58;9.10;97.80
19561;DHT22;9927;47.792;10.616;2022-12-29T18:10:27;9.10;97.80
19561;DHT22;9927;47.792;10.616;2022-12-29T18:12:58;9.20;97.70
19561;DHT22;9927;47.792;10.616;2022-12-29T18:15:29;9.30;98.40
19561;DHT22;9927;47.792;10.616;2022-12-29T18:20:29;9.50;99.70
19561;DHT22;9927;47.792;10.616;2022-12-29T18:22:57;9.50;99.90
19561;DHT22;9927;47.792;10.616;2022-12-29T18:25:39;9.50;99.90
19561;DHT22;9927;47.792;10.616;2022-12-29T18:28:08;9.60;99.90
19561;DHT22;9927;47.792;10.616;2022-12-29T18:30:35;9.50;99.90
19561;DHT22;9927;47.792;10.616;2022-12-29T18:33:03;9.50;99.90
19561;DHT22;9927;47.792;10.616;2022-12-29T18:35:38;9.50;99.90
19561;DHT22;9927;47.792;10.616;2022-12-29T18:38:07;9.40;99.90
19561;DHT22;9927;47.792;10.616;2022-12-29T18:40:41;9.40;99.90
19561;DHT22;9927;47.792;10.616;2022-12-29T18:43:12;9.30;99.90
19561;DHT22;9927;47.792;10.616;2022-12-29T18:45:40;9.40;99.90
19561;DHT22;9927;47.792;10.616;2022-12-29T18:48:07;9.30;99.90
19561;DHT22;9927;47.792;10.616;2022-12-29T18:50:34;9.20;99.90
19561;DHT22;9927;47.792;10.616;2022-12-29T18:53:02;9.20;99.90
19561;DHT22;9927;47.792;10.616;2022-12-29T18:55:30;9.20;99.90
19561;DHT22;9927;47.792;10.616;2022-12-29T18:57:58;9.30;99.90
19561;DHT22;9927;47.792;10.616;2022-12-29T19:00:25;9.30;99.90
19561;DHT22;9927;47.792;10.616;2022-12-29T19:02:52;9.30;99.90
19561;DHT22;9927;47.792;10.616;2022-12-29T19:05:28;9.40;99.90
19561;DHT22;9927;47.792;10.616;2022-12-29T19:07:56;9.40;99.90
19561;DHT22;9927;47.792;10.616;2022-12-29T19:10:24;9.40;99.90
19561;DHT22;9927;47.792;10.616;2022-12-29T19:12:52;9.30;99.90
19561;DHT22;9927;47.792;10.616;2022-12-29T19:15:34;9.30;99.90
19561;DHT22;9927;47.792;10.616;2022-12-29T19:18:03;9.30;99.90
19561;DHT22;9927;47.792;10.616;2022-12-29T19:20:52;9.30;99.90
19561;DHT22;9927;47.792;10.616;2022-12-29T19:23:22;9.30;99.90
19561;DHT22;9927;47.792;10.616;2022-12-29T19:25:51;9.30;99.90
19561;DHT22;9927;47.792;10.616;2022-12-29T19:28:24;9.40;99.90
19561;DHT22;9927;47.792;10.616;2022-12-29T19:30:54;9.30;99.90
19561;DHT22;9927;47.792;10.616;2022-12-29T19:33:23;9.30;99.90
19561;DHT22;9927;47.792;10.616;2022-12-29T19:35:51;9.30;99.90
19561;DHT22;9927;47.792;10.616;2022-12-29T19:38:19;9.30;99.90
19561;DHT22;9927;47.792;10.616;2022-12-29T19:40:48;9.30;99.90
19561;DHT22;9927;47.792;10.616;2022-12-29T19:43:17;9.30;99.90
19561;DHT22;9927;47.792;10.616;2022-12-29T19:45:44;9.30;99.90
19561;DHT22;9927;47.792;10.616;2022-12-29T19:48:14;9.30;99.90
19561;DHT22;9927;47.792;10.616;2022-12-29T19:50:42;9.20;99.90
19561;DHT22;9927;47.792;10.616;2022-12-29T19:53:13;9.20;99.90
19561;DHT22;9927;47.792;10.616;2022-12-29T19:55:42;9.20;99.90
19561;DHT22;9927;47.792;10.616;2022-12-29T19:58:09;9.20;99.90
19561;DHT22;9927;47.792;10.616;2022-12-29T20:00:38;9.10;99.90
19561;DHT22;9927;47.792;10.616;2022-12-29T20:03:06;9.20;99.90
19561;DHT22;9927;47.792;10.616;2022-12-29T20:05:33;9.10;99.90
19561;DHT22;9927;47.792;10.616;2022-12-29T20:08:00;9.10;99.90
19561;DHT22;9927;47.792;10.616;2022-12-29T20:10:28;9.10;99.90
19561;DHT22;9927;47.792;10.616;2022-12-29T20:12:55;9.10;99.90
19561;DHT22;9927;47.792;10.616;2022-12-29T20:15:22;9.20;99.90
19561;DHT22;9927;47.792;10.616;2022-12-29T20:17:50;9.10;99.90
19561;DHT22;9927;47.792;10.616;2022-12-29T20:20:37;9.10;99.90
19561;DHT22;9927;47.792;10.616;2022-12-29T20:23:05;9.10;99.90
19561;DHT22;9927;47.792;10.616;2022-12-29T20:25:32;9.10;99.90
19561;DHT22;9927;47.792;10.616;2022-12-29T20:28:12;9.10;99.90
19561;DHT22;9927;47.792;10.616;2022-12-29T20:30:40;9.10;99.90
19561;DHT22;9927;47.792;10.616;2022-12-29T20:33:07;9.10;99.90
19561;DHT22;9927;47.792;10.616;2022-12-29T20:35:36;9.10;99.90
19561;DHT22;9927;47.792;10.616;2022-12-29T20:38:03;9.10;99.90
19561;DHT22;9927;47.792;10.616;2022-12-29T20:40:31;9.10;99.90
19561;DHT22;9927;47.792;10.616;2022-12-29T20:42:58;9.10;99.90
19561;DHT22;9927;47.792;10.616;2022-12-29T20:45:26;9.10;99.90
19561;DHT22;9927;47.792;10.616;2022-12-29T20:47:53;9.00;99.90
19561;DHT22;9927;47.792;10.616;2022-12-29T20:50:20;9.10;99.90
19561;DHT22;9927;47.792;10.616;2022-12-29T20:52:48;9.00;99.90
19561;DHT22;9927;47.792;10.616;2022-12-29T20:55:15;9.00;99.90
19561;DHT22;9927;47.792;10.616;2022-12-29T20:57:43;9.00;99.90
19561;DHT22;9927;47.792;10.616;2022-12-29T21:00:31;8.90;99.90
19561;DHT22;9927;47.792;10.616;2022-12-29T21:02:59;8.90;99.90
19561;DHT22;9927;47.792;10.616;2022-12-29T21:05:27;8.90;99.90
19561;DHT22;9927;47.792;10.616;2022-12-29T21:07:55;8.90;99.90
19561;DHT22;9927;47.792;10.616;2022-12-29T21:10:25;8.90;99.90
19561;DHT22;9927;47.792;10.616;2022-12-29T21:12:53;8.90;99.90
19561;DHT22;9927;47.792;10.616;2022-12-29T21:15:20;8.90;99.90
19561;DHT22;9927;47.792;10.616;2022-12-29T21:17:48;8.80;99.90
19561;DHT22;9927;47.792;10.616;2022-12-29T21:20:15;8.80;99.90
19561;DHT22;9927;47.792;10.616;2022-12-29T21:22:58;8.80;99.90
19561;DHT22;9927;47.792;10.616;2022-12-29T21:25:28;8.90;99.90
19561;DHT22;9927;47.792;10.616;2022-12-29T21:28:04;8.90;99.90
19561;DHT22;9927;47.792;10.616;2022-12-29T21:30:33;9.00;99.90
19561;DHT22;9927;47.792;10.616;2022-12-29T21:33:00;9.00;99.90
19561;DHT22;9927;47.792;10.616;2022-12-29T21:35:28;9.00;99.90
19561;DHT22;9927;47.792;10.616;2022-12-29T21:37:55;9.00;99.90
19561;DHT22;9927;47.792;10.616;2022-12-29T21:40:23;9.00;99.90
19561;DHT22;9927;47.792;10.616;2022-12-29T21:42:51;9.00;99.90
19561;DHT22;9927;47.792;10.616;2022-12-29T21:45:18;9.00;99.90
19561;DHT22;9927;47.792;10.616;2022-12-29T21:47:53;9.00;99.90
19561;DHT22;9927;47.792;10.616;2022-12-29T21:50:40;8.90;99.90
19561;DHT22;9927;47.792;10.616;2022-12-29T21:53:39;9.00;99.90
19561;DHT22;9927;47.792;10.616;2022-12-29T21:56:11;8.90;99.90
19561;DHT22;9927;47.792;10.616;2022-12-29T21:58:41;8.90;99.90
